Detall de PIREP

Printer-friendly versionPDF version

[2008/08/29 16:33:00]
Flight IATA:CT3232
Pilot Number:037
Company ICAO:CAT
Aircraft Type:AT72/F
PAX:38
Departing Airport: LEPA
Destination Airport: LEMD
Alternate Airport:LEMG
Online: VATSIM
Route:TURIA UN733 VLC CLS PRADO
Flight Level:FL200
No Slew and time accel
No pause
Crash detect
Detect pilot in Cockpit between each 30 and 45 minutes
16:33 Zero fuel Weight: 40068 Lbs, Fuel Weight: 4929 Lbs
16:33 VATSIM:LEPA 291600Z 21009KT CAVOK 28/17 Q1016 NOSIG
16:33 VATSIM:LEMD 291600Z 15012G22KT 110V210 9999 FEW070 33/03 Q1014 NOSIG
16:43 Parking Brakes off
16:48 Take-off
16:48 Take off Weight: 44948 Lbs
16:48 Wind: 212? @ 009 Knots Heading: 232?
16:48 POS N39? 33? 27?? E002? 43? 58??
16:48 Flaps:1 at 123 Knots
16:48 Gear Up: 133 Knots
16:48 Flaps:0 at 172 Knots
17:00 TOC
17:00 Fuel Weight: 4374 Lb
17:03 Wind:111?@018 Knots Heading: 269? Ground Speed: 330 Knots Altitu
de 20055 ft
17:18 Wind:110?@026 Knots Heading: 268? Ground Speed: 340 Knots Altitude 20052 ft
17:24 TOD
17:24 Fuel Weight: 3537 Lb
17:33 Wind:143?@032 Knots Heading: 296? Ground Speed: 346 Knots Altitude 19028 ft
17:48 Wind:155?@011 Knots Heading: 259? Ground Speed: 235 Knots Altitude 6003 ft
17:50 Gear Down: 179 Knots
17:50 Flaps:1 at 178 Knots
17:52 Flaps:2 at 118 Knots
17:54 Gear Up: 128 Knots
17:54 Flaps:1 at 128 Knots
17:54 Flaps:0 at 123 Knots
18:00 Gear Down: 197 Knots
18:01 Flaps:1 at 197 Knots
18:03 Wind:168?@011 Knots Heading: 229? Ground Speed: 154 Knots Altitude 4222 ft
18:03 Flaps:2 at 130 Knots
18:06 TouchDown:Rate -422 ft/min Speed: 107 Knots
18:06 VATSIM:LEMD 291730Z 16013KT 9999 FEW070 33/02 Q1013 NOSIG
18:06 Land
18:06 Wind:161?@011 Knots
18:06 Heading: 176?
18:06 Flight Duration: 01:18
18:06 Landing Weight: 42589 Lbs
18:06 POS N40? 31
? 19?? W003? 33? 31??
18:11 Parking brakes on
18:11 Block to Block Duration: 01:28
18:11 Final Fuel: 2447 Lbls
18:11 Spent Fuel: 2482 Lbls
18:11 Flight Length: 311 NM
18:11 TOD Land Length: 128 NM

Exportar CSV

Powered by Drupal - Modified by Danger4k